Time;durP1;ratioP1;P1;durP2;ratioP2;P2;SDS_P1;SDS_P2;PMS_P1;PMS_P2;Temp;Humidity;BMP_temperature;BMP_pressure;BME280_temperature;BME280_humidity;BME280_pressure;Samples;Min_cycle;Max_cycle;Signal;HPM_P1;HPM_P2
2024/01/03 00:01:42;;;;;;;20.27;12.57;;;10.50;99.90;;;;;;10179379;29;20330;-87
2024/01/03 00:06:48;;;;;;;16.43;11.87;;;10.70;99.90;;;;;;10207022;29;20227;-86
2024/01/03 00:11:53;;;;;;;23.27;13.37;;;10.10;99.90;;;;;;10206381;29;20257;-87
2024/01/03 00:17:00;;;;;;;21.60;13.17;;;10.30;99.90;;;;;;10193590;29;20267;-87
2024/01/03 00:22:03;;;;;;;16.10;11.90;;;10.50;99.90;;;;;;10203866;29;20242;-87
2024/01/03 00:27:06;;;;;;;17.63;11.83;;;10.10;99.90;;;;;;10186497;29;20231;-86
2024/01/03 00:32:10;;;;;;;16.97;11.47;;;10.00;99.90;;;;;;10190815;29;20258;-87
2024/01/03 00:37:24;;;;;;;21.90;12.83;;;10.30;99.90;;;;;;10212168;29;20746;-87
2024/01/03 00:42:26;;;;;;;16.37;10.70;;;10.40;99.90;;;;;;10211693;29;20639;-87
2024/01/03 00:47:29;;;;;;;17.47;11.57;;;10.40;99.90;;;;;;10194737;29;20301;-87
2024/01/03 00:52:32;;;;;;;16.63;12.00;;;10.10;99.90;;;;;;10199456;29;20250;-87
2024/01/03 00:57:36;;;;;;;13.83;10.87;;;10.10;99.90;;;;;;10211745;29;20755;-87
2024/01/03 01:02:38;;;;;;;15.10;11.30;;;9.70;99.90;;;;;;10210582;29;20643;-87
2024/01/03 01:07:41;;;;;;;12.80;11.07;;;9.10;99.90;;;;;;10194397;29;20785;-87
2024/01/03 01:12:43;;;;;;;16.37;11.57;;;9.20;99.90;;;;;;10199358;29;20262;-86
2024/01/03 01:17:46;;;;;;;18.70;11.10;;;9.80;99.90;;;;;;10193070;29;20258;-86
2024/01/03 01:22:49;;;;;;;15.00;10.10;;;9.60;99.90;;;;;;10193128;29;20680;-87
2024/01/03 01:27:51;;;;;;;14.97;11.17;;;9.80;99.90;;;;;;10190837;29;20231;-87
2024/01/03 01:32:53;;;;;;;13.87;10.20;;;9.50;99.90;;;;;;10209556;29;20255;-87
2024/01/03 01:37:57;;;;;;;14.37;10.57;;;9.40;99.90;;;;;;10209118;29;20278;-87
2024/01/03 01:43:00;;;;;;;14.53;11.63;;;9.60;99.90;;;;;;10209174;29;20627;-87
2024/01/03 01:48:03;;;;;;;14.40;11.37;;;9.60;99.90;;;;;;10191926;29;20230;-87
2024/01/03 01:53:07;;;;;;;11.73;9.63;;;9.50;99.90;;;;;;10209058;29;20315;-86
2024/01/03 01:58:10;;;;;;;11.17;8.33;;;9.60;99.90;;;;;;10191671;29;20238;-86
2024/01/03 02:03:13;;;;;;;10.70;9.23;;;9.40;99.90;;;;;;10191913;29;20238;-87
2024/01/03 02:08:16;;;;;;;11.27;8.63;;;9.10;99.90;;;;;;10192200;29;20290;-87
2024/01/03 02:13:19;;;;;;;9.40;7.00;;;8.90;99.90;;;;;;10178865;29;20262;-87
2024/01/03 02:18:22;;;;;;;11.10;7.63;;;8.50;99.90;;;;;;10203016;29;20711;-87
2024/01/03 02:23:25;;;;;;;11.67;7.63;;;8.80;99.90;;;;;;10199968;29;20661;-87
2024/01/03 02:28:27;;;;;;;8.50;7.20;;;8.50;99.90;;;;;;10167497;29;20231;-86
2024/01/03 02:33:30;;;;;;;7.00;6.30;;;8.60;99.90;;;;;;10183696;29;20255;-86
2024/01/03 02:38:33;;;;;;;11.03;7.67;;;8.70;99.90;;;;;;10187500;29;20289;-86
2024/01/03 02:43:35;;;;;;;10.60;7.50;;;8.60;99.90;;;;;;10189659;29;20239;-86
2024/01/03 02:48:41;;;;;;;8.07;6.20;;;9.10;99.90;;;;;;10199351;29;20234;-87
2024/01/03 02:53:45;;;;;;;7.33;5.33;;;8.90;99.90;;;;;;10183139;29;20325;-86
2024/01/03 02:58:47;;;;;;;6.83;5.10;;;8.60;99.90;;;;;;10206600;29;20231;-87
2024/01/03 03:03:50;;;;;;;6.10;5.40;;;8.30;99.90;;;;;;10189232;29;20329;-87
2024/01/03 03:08:53;;;;;;;7.00;6.27;;;8.50;99.90;;;;;;10206693;29;20293;-87
2024/01/03 03:14:15;;;;;;;9.77;7.03;;;9.00;99.90;;;;;;10187136;29;20251;-87
2024/01/03 03:19:18;;;;;;;7.47;6.30;;;9.40;99.90;;;;;;10205838;29;20285;-86
2024/01/03 03:24:21;;;;;;;7.10;6.33;;;9.50;99.90;;;;;;10205538;29;20375;-87
2024/01/03 03:29:24;;;;;;;9.07;6.80;;;9.60;99.90;;;;;;10206054;29;20238;-86
2024/01/03 03:34:26;;;;;;;9.00;6.37;;;9.50;99.90;;;;;;10193792;29;20250;-87
2024/01/03 03:39:29;;;;;;;5.33;4.83;;;8.90;99.90;;;;;;10194709;29;20231;-87
2024/01/03 03:44:31;;;;;;;5.00;4.50;;;8.50;99.90;;;;;;10193845;29;20243;-87
2024/01/03 03:49:34;;;;;;;6.57;5.43;;;8.00;99.90;;;;;;10202560;29;20249;-87
2024/01/03 03:54:36;;;;;;;7.53;5.67;;;8.00;99.90;;;;;;10194334;29;20666;-87
2024/01/03 03:59:40;;;;;;;8.40;6.37;;;8.10;99.90;;;;;;10205749;29;20626;-87
2024/01/03 04:04:43;;;;;;;5.67;5.13;;;8.70;99.90;;;;;;10203641;29;20233;-87
2024/01/03 04:09:46;;;;;;;5.90;5.30;;;8.20;99.90;;;;;;10213243;29;20285;-87
2024/01/03 04:14:48;;;;;;;10.80;6.63;;;7.80;99.90;;;;;;10200288;29;20291;-87
2024/01/03 04:19:51;;;;;;;7.70;6.80;;;7.70;99.90;;;;;;10175094;29;20238;-87
2024/01/03 04:24:53;;;;;;;7.83;6.63;;;7.50;99.90;;;;;;10200147;29;20286;-87
2024/01/03 04:29:56;;;;;;;7.33;5.67;;;7.40;99.90;;;;;;10173681;29;20680;-87
2024/01/03 04:34:59;;;;;;;6.23;5.53;;;7.60;99.90;;;;;;10203399;29;20254;-87
2024/01/03 04:40:01;;;;;;;6.83;6.13;;;7.40;99.90;;;;;;10195144;29;20231;-87
2024/01/03 04:45:04;;;;;;;6.33;5.73;;;7.30;99.90;;;;;;10197783;29;20238;-87
2024/01/03 04:50:07;;;;;;;6.90;6.27;;;7.30;99.90;;;;;;10186392;29;20659;-87
2024/01/03 04:55:10;;;;;;;9.23;6.50;;;7.50;99.90;;;;;;10210994;29;20260;-86
2024/01/03 05:00:13;;;;;;;9.43;6.53;;;7.40;99.90;;;;;;10210753;29;20293;-87
2024/01/03 05:05:16;;;;;;;8.43;6.87;;;7.40;99.90;;;;;;10204793;29;20230;-87
2024/01/03 05:10:18;;;;;;;9.47;7.37;;;7.80;99.90;;;;;;10210702;29;20230;-87
2024/01/03 05:15:21;;;;;;;6.73;6.07;;;7.50;99.90;;;;;;10191795;29;20262;-87
2024/01/03 05:20:23;;;;;;;8.53;7.50;;;7.90;99.90;;;;;;10209995;29;20235;-87
2024/01/03 05:25:26;;;;;;;10.33;8.30;;;7.80;99.90;;;;;;10203654;29;20772;-87
2024/01/03 05:30:28;;;;;;;27.47;17.13;;;7.70;99.90;;;;;;10208378;29;20229;-87
2024/01/03 05:35:31;;;;;;;18.23;11.80;;;7.90;99.90;;;;;;10182780;29;20711;-87
2024/01/03 05:40:33;;;;;;;8.87;7.57;;;8.10;99.90;;;;;;10209764;29;20246;-87
2024/01/03 05:45:36;;;;;;;7.63;6.17;;;8.60;99.90;;;;;;10178966;29;20243;-87
2024/01/03 05:50:39;;;;;;;6.03;5.40;;;9.00;99.90;;;;;;10209716;29;20241;-87
2024/01/03 05:55:41;;;;;;;5.20;4.40;;;9.30;99.90;;;;;;10208837;29;20316;-88
2024/01/03 06:00:44;;;;;;;4.77;4.37;;;9.50;99.90;;;;;;10191898;29;20234;-87
2024/01/03 06:05:46;;;;;;;6.07;4.80;;;9.20;99.90;;;;;;10165347;29;20230;-88
2024/01/03 06:10:49;;;;;;;8.63;5.90;;;9.70;99.90;;;;;;10208775;29;20289;-87
2024/01/03 06:15:51;;;;;;;5.57;4.93;;;10.10;99.90;;;;;;10207032;29;20336;-88
2024/01/03 06:20:54;;;;;;;9.60;5.70;;;11.40;99.90;;;;;;10208739;29;20629;-88
2024/01/03 06:25:57;;;;;;;9.43;5.10;;;11.40;99.90;;;;;;10206711;29;20242;-87
2024/01/03 06:31:02;;;;;;;3.40;2.83;;;11.60;99.90;;;;;;10190269;29;20234;-87
2024/01/03 06:36:05;;;;;;;5.93;3.87;;;12.30;99.90;;;;;;10206860;29;20246;-88
2024/01/03 06:41:08;;;;;;;4.97;3.43;;;12.60;99.90;;;;;;10191406;29;20259;-87
2024/01/03 06:46:11;;;;;;;3.40;2.80;;;12.70;99.90;;;;;;10206290;29;20305;-87
2024/01/03 06:51:20;;;;;;;4.67;3.00;;;;;;;;;;10204604;29;20238;-88
2024/01/03 06:56:24;;;;;;;3.77;2.90;;;;;;;;;;10189719;29;20294;-87
2024/01/03 07:01:28;;;;;;;3.50;2.87;;;;;;;;;;10164694;29;20256;-86
2024/01/03 07:06:30;;;;;;;3.37;2.73;;;;;;;;;;10175621;29;20278;-85
2024/01/03 07:11:33;;;;;;;3.70;2.87;;;;;;;;;;10175844;29;20223;-85
2024/01/03 07:16:36;;;;;;;4.43;2.87;;;;;;;;;;10175790;29;20650;-85
2024/01/03 07:21:39;;;;;;;4.03;2.67;;;;;;;;;;10186821;29;20234;-86
2024/01/03 07:26:41;;;;;;;4.10;2.87;;;;;;;;;;10193972;29;20285;-86
2024/01/03 07:31:44;;;;;;;4.83;3.57;;;;;;;;;;10207518;29;20246;-86
2024/01/03 07:36:47;;;;;;;4.83;3.00;;;14.70;99.90;;;;;;10208508;29;20247;-86
2024/01/03 07:41:50;;;;;;;3.13;2.33;;;14.50;99.90;;;;;;10197568;29;20308;-87
2024/01/03 07:46:53;;;;;;;2.33;1.10;;;14.50;99.90;;;;;;10177352;29;20265;-89
2024/01/03 07:51:55;;;;;;;3.67;0.90;;;13.50;99.90;;;;;;10213428;29;20230;-90
2024/01/03 07:56:58;;;;;;;1.20;0.73;;;13.80;99.90;;;;;;10213674;29;20285;-89
2024/01/03 08:02:00;;;;;;;1.57;1.03;;;13.90;99.90;;;;;;10209709;29;20235;-90
2024/01/03 08:07:03;;;;;;;2.70;1.03;;;14.00;99.90;;;;;;10198347;29;20234;-87
2024/01/03 08:12:09;;;;;;;1.27;0.70;;;13.80;99.90;;;;;;10192607;23;20295;-87
2024/01/03 08:17:11;;;;;;;3.00;0.90;;;13.80;99.90;;;;;;10177129;29;20290;-88
2024/01/03 08:22:14;;;;;;;3.03;1.33;;;14.00;99.90;;;;;;10172934;29;20277;-88
2024/01/03 08:27:20;;;;;;;5.50;2.53;;;14.20;99.90;;;;;;10172814;29;20235;-87
2024/01/03 08:32:25;;;;;;;1.43;0.80;;;14.10;99.90;;;;;;10140831;29;20619;-87
2024/01/03 08:37:29;;;;;;;1.00;0.73;;;14.20;99.90;;;;;;10133613;29;20268;-88
2024/01/03 08:42:32;;;;;;;1.70;0.97;;;14.20;99.90;;;;;;10124604;29;20299;-90
2024/01/03 08:47:34;;;;;;;4.37;1.53;;;14.40;99.90;;;;;;10181268;29;20234;-89
2024/01/03 08:52:37;;;;;;;2.83;1.30;;;14.40;99.90;;;;;;10211433;29;20297;-88
2024/01/03 08:57:39;;;;;;;3.97;1.73;;;14.50;99.90;;;;;;10211234;29;20309;-84
2024/01/03 09:02:42;;;;;;;2.03;0.90;;;14.60;99.90;;;;;;10209474;29;20235;-87
2024/01/03 09:07:45;;;;;;;2.87;0.90;;;14.80;99.90;;;;;;10182636;29;20831;-83
2024/01/03 09:12:47;;;;;;;1.50;1.00;;;15.00;99.90;;;;;;10171965;29;20338;-87
2024/01/03 09:17:50;;;;;;;3.63;1.33;;;15.30;99.90;;;;;;10154799;29;20283;-85
2024/01/03 09:22:53;;;;;;;1.13;0.60;;;15.30;99.90;;;;;;10155947;29;20228;-85
2024/01/03 09:27:56;;;;;;;1.60;0.60;;;15.50;99.90;;;;;;10172440;29;20699;-87
2024/01/03 09:32:58;;;;;;;3.27;0.97;;;15.30;99.90;;;;;;10206082;29;20239;-84
2024/01/03 09:38:01;;;;;;;2.13;1.00;;;15.40;99.90;;;;;;10209073;29;20266;-85
2024/01/03 09:43:05;;;;;;;0.80;0.20;;;15.70;99.90;;;;;;10194235;29;20234;-86
2024/01/03 09:48:11;;;;;;;3.40;0.97;;;15.60;99.90;;;;;;10188653;29;20242;-86
2024/01/03 09:53:15;;;;;;;1.17;0.53;;;15.90;99.90;;;;;;10171432;29;20621;-86
2024/01/03 09:58:19;;;;;;;1.00;0.50;;;15.80;99.90;;;;;;10186309;29;20807;-89
2024/01/03 10:03:22;;;;;;;0.73;0.40;;;15.80;99.90;;;;;;10171070;29;20236;-87
2024/01/03 10:08:25;;;;;;;3.47;0.60;;;16.20;99.90;;;;;;10176784;29;20295;-87
2024/01/03 10:13:28;;;;;;;0.80;0.47;;;16.30;99.90;;;;;;10175506;29;20259;-86
2024/01/03 10:18:31;;;;;;;0.33;0.33;;;16.10;99.90;;;;;;10205042;29;20258;-86
2024/01/03 10:23:35;;;;;;;1.63;0.50;;;16.10;99.90;;;;;;10208582;29;20581;-86
2024/01/03 10:28:38;;;;;;;0.70;0.50;;;15.90;99.90;;;;;;10201235;29;20232;-87
2024/01/03 10:33:41;;;;;;;1.50;0.90;;;15.60;99.90;;;;;;10167433;29;20247;-85
2024/01/03 10:39:04;;;;;;;4.53;0.90;;;15.50;99.90;;;;;;10168881;29;20690;-86
2024/01/03 10:44:09;;;;;;;4.10;0.90;;;15.60;99.90;;;;;;10168282;29;20235;-87
2024/01/03 10:49:12;;;;;;;1.73;0.60;;;15.60;99.90;;;;;;10197902;29;20309;-86
2024/01/03 10:54:20;;;;;;;1.43;0.63;;;15.40;99.90;;;;;;10198675;29;20232;-87
2024/01/03 10:59:30;;;;;;;1.83;0.93;;;15.30;99.90;;;;;;10181991;29;20290;-85
2024/01/03 11:04:39;;;;;;;2.20;0.87;;;15.40;99.90;;;;;;10207043;29;20242;-84
2024/01/03 11:09:41;;;;;;;1.67;0.80;;;15.10;99.90;;;;;;10206496;29;20246;-84
2024/01/03 11:14:45;;;;;;;1.30;0.90;;;15.20;99.90;;;;;;10201700;29;20695;-85
2024/01/03 11:19:47;;;;;;;6.57;3.43;;;15.40;99.90;;;;;;10128123;29;20315;-84
2024/01/03 11:24:50;;;;;;;17.63;9.43;;;15.30;99.90;;;;;;10136002;29;20227;-86
2024/01/03 11:29:54;;;;;;;11.00;6.00;;;14.00;99.90;;;;;;10191343;29;20242;-86
2024/01/03 11:34:58;;;;;;;36.43;16.40;;;14.00;99.90;;;;;;10206493;29;20715;-87
2024/01/03 11:40:02;;;;;;;10.80;5.03;;;13.90;99.90;;;;;;10206629;29;20222;-87
2024/01/03 11:45:13;;;;;;;18.87;9.30;;;14.20;99.90;;;;;;10205792;29;20755;-89
2024/01/03 11:50:17;;;;;;;19.87;8.97;;;14.10;99.90;;;;;;10206693;29;20247;-88
2024/01/03 11:55:21;;;;;;;3.23;1.97;;;14.30;99.90;;;;;;10172010;29;20788;-87
2024/01/03 12:00:24;;;;;;;4.43;2.33;;;13.80;99.90;;;;;;10167510;29;20610;-86
2024/01/03 12:05:27;;;;;;;6.73;3.10;;;14.10;99.90;;;;;;10167723;29;20267;-87
2024/01/03 12:10:30;;;;;;;8.50;4.20;;;13.50;99.90;;;;;;10167732;29;20232;-87
2024/01/03 12:15:33;;;;;;;14.63;6.57;;;14.20;99.90;;;;;;10151453;29;20323;-89
2024/01/03 12:20:51;;;;;;;9.93;5.67;;;14.60;99.90;;;;;;10193627;29;20297;-89
2024/01/03 12:25:54;;;;;;;10.70;4.80;;;14.80;99.90;;;;;;10175344;29;20326;-86
2024/01/03 12:30:58;;;;;;;3.33;1.60;;;14.50;99.90;;;;;;10168505;29;20310;-87
2024/01/03 12:36:03;;;;;;;10.00;3.93;;;14.10;99.90;;;;;;10174341;29;20756;-86
2024/01/03 12:41:06;;;;;;;25.10;10.70;;;14.20;99.90;;;;;;10174471;29;20630;-87
2024/01/03 12:46:09;;;;;;;17.00;9.00;;;15.20;99.90;;;;;;9942659;29;26646;-87
2024/01/03 12:51:11;;;;;;;12.17;5.53;;;15.30;99.90;;;;;;10046722;29;20259;-86
2024/01/03 12:56:14;;;;;;;20.10;9.57;;;15.60;99.90;;;;;;10127131;29;20718;-86
2024/01/03 13:01:16;;;;;;;15.23;8.30;;;15.80;99.90;;;;;;10134243;29;20296;-84
2024/01/03 13:06:18;;;;;;;21.37;8.43;;;15.60;99.90;;;;;;10134291;29;20351;-85
2024/01/03 13:11:20;;;;;;;20.67;9.30;;;15.80;99.90;;;;;;10133988;29;20216;-87
2024/01/03 13:16:23;;;;;;;18.40;9.07;;;15.80;99.90;;;;;;10100634;29;20714;-86
2024/01/03 13:21:25;;;;;;;21.07;11.50;;;15.50;99.90;;;;;;10065467;29;20311;-86
2024/01/03 13:26:27;;;;;;;14.47;7.70;;;15.70;99.90;;;;;;10118024;29;20213;-86
2024/01/03 13:31:29;;;;;;;18.97;8.23;;;15.20;99.90;;;;;;10122967;29;20729;-88
2024/01/03 13:36:31;;;;;;;19.37;8.13;;;15.50;99.90;;;;;;10122355;29;20227;-87
2024/01/03 13:41:34;;;;;;;17.87;7.23;;;15.50;99.90;;;;;;10131891;29;20197;-87
2024/01/03 13:46:36;;;;;;;16.50;7.90;;;15.60;99.90;;;;;;10125316;29;20226;-88
2024/01/03 13:51:38;;;;;;;10.67;5.93;;;15.50;99.90;;;;;;10094102;29;20193;-87
2024/01/03 13:56:41;;;;;;;9.70;5.77;;;15.80;99.90;;;;;;10092228;29;20786;-86
2024/01/03 14:01:49;;;;;;;14.47;7.27;;;15.50;99.90;;;;;;10108675;29;20272;-86
2024/01/03 14:06:51;;;;;;;16.03;8.00;;;15.50;99.90;;;;;;10125240;29;20204;-89
2024/01/03 14:11:53;;;;;;;16.03;7.27;;;15.50;99.90;;;;;;10092274;29;20247;-88
2024/01/03 14:17:00;;;;;;;14.10;6.90;;;15.40;99.90;;;;;;10089471;29;20324;-88
2024/01/03 14:22:03;;;;;;;14.60;7.03;;;15.50;99.90;;;;;;10097458;29;20659;-90
2024/01/03 14:27:05;;;;;;;13.50;6.77;;;15.70;99.90;;;;;;10130654;29;20205;-89
2024/01/03 14:32:07;;;;;;;15.50;7.13;;;15.20;99.90;;;;;;10109295;29;20205;-88
2024/01/03 14:37:17;;;;;;;13.17;7.13;;;15.60;99.90;;;;;;10108755;29;20264;-88
2024/01/03 14:42:23;;;;;;;13.27;6.67;;;15.60;99.90;;;;;;10090099;29;20209;-89
2024/01/03 14:47:25;;;;;;;11.47;6.07;;;15.40;99.90;;;;;;10094301;29;20240;-90
2024/01/03 14:52:27;;;;;;;12.20;7.27;;;15.30;99.90;;;;;;10089393;29;20843;-88
2024/01/03 14:57:29;;;;;;;11.27;6.13;;;15.60;99.90;;;;;;10116680;29;20223;-84
2024/01/03 15:02:32;;;;;;;9.07;3.80;;;15.40;99.90;;;;;;10128187;29;20641;-86
2024/01/03 15:07:34;;;;;;;10.43;4.90;;;15.40;99.90;;;;;;10095928;29;20242;-91
2024/01/03 15:12:36;;;;;;;10.73;5.23;;;15.40;99.90;;;;;;10090496;29;20245;-92
2024/01/03 15:17:38;;;;;;;12.83;5.23;;;15.10;99.90;;;;;;10128114;29;20242;-92
2024/01/03 15:22:41;;;;;;;6.33;4.33;;;14.70;99.90;;;;;;10091555;29;20232;-93
2024/01/03 15:27:43;;;;;;;10.03;5.23;;;14.20;99.90;;;;;;10099550;29;20272;-93
2024/01/03 15:32:45;;;;;;;10.23;4.33;;;14.20;99.90;;;;;;10067033;29;20219;-91
2024/01/03 15:37:48;;;;;;;6.87;5.03;;;14.30;99.90;;;;;;10092120;29;20230;-92
2024/01/03 15:42:51;;;;;;;9.87;4.70;;;14.30;99.90;;;;;;10090219;29;20201;-92
2024/01/03 15:47:53;;;;;;;8.93;5.37;;;14.70;99.90;;;;;;10090475;29;20209;-91
2024/01/03 15:52:55;;;;;;;12.67;5.07;;;14.10;99.90;;;;;;10089713;29;20584;-91
2024/01/03 15:57:57;;;;;;;12.23;6.57;;;13.50;99.90;;;;;;10092810;29;20245;-89
2024/01/03 16:03:00;;;;;;;20.37;11.43;;;12.60;99.90;;;;;;10098041;29;20205;-90
2024/01/03 16:08:03;;;;;;;27.57;16.13;;;11.80;99.90;;;;;;10083591;29;20216;-91
2024/01/03 16:13:05;;;;;;;21.87;13.63;;;11.20;99.90;;;;;;10082597;29;20243;-90
2024/01/03 16:18:07;;;;;;;26.40;14.47;;;10.90;99.90;;;;;;9743050;29;10000376;-92
2024/01/03 16:23:09;;;;;;;20.87;12.73;;;10.90;99.90;;;;;;10086923;29;20292;-90
2024/01/03 16:28:12;;;;;;;20.53;11.40;;;11.00;99.90;;;;;;9756607;29;9999810;-89
2024/01/03 16:33:13;;;;;;;19.67;9.70;;;11.10;99.90;;;;;;10095819;29;20285;-91
2024/01/03 16:38:22;;;;;;;15.07;8.33;;;11.10;99.90;;;;;;10086315;29;20339;-85
2024/01/03 16:43:26;;;;;;;16.77;8.93;;;11.00;99.90;;;;;;10065602;29;20747;-88
2024/01/03 16:48:28;;;;;;;14.00;8.37;;;11.00;99.90;;;;;;10128136;29;20689;-88
2024/01/03 16:53:32;;;;;;;17.17;10.03;;;10.80;99.90;;;;;;10130398;29;20219;-88
2024/01/03 16:58:34;;;;;;;18.50;9.87;;;10.60;99.90;;;;;;10124459;29;20224;-89
2024/01/03 17:03:37;;;;;;;11.73;7.20;;;10.50;99.90;;;;;;10097772;29;20888;-86
2024/01/03 17:08:39;;;;;;;22.40;10.37;;;10.20;99.90;;;;;;10103563;29;20311;-86
2024/01/03 17:13:41;;;;;;;19.07;10.63;;;10.30;99.90;;;;;;10117899;29;20229;-86
2024/01/03 17:18:44;;;;;;;15.27;8.93;;;10.00;99.90;;;;;;10059807;29;20241;-88
2024/01/03 17:23:47;;;;;;;18.10;9.07;;;9.90;99.90;;;;;;10053817;29;20260;-88
2024/01/03 17:28:50;;;;;;;20.97;10.03;;;10.10;99.90;;;;;;10052630;29;20414;-88
2024/01/03 17:33:54;;;;;;;20.93;12.40;;;10.30;99.90;;;;;;10087992;29;20298;-88
2024/01/03 17:38:56;;;;;;;24.13;12.07;;;10.20;99.90;;;;;;10111034;29;20236;-88
2024/01/03 17:43:58;;;;;;;20.43;12.07;;;10.40;99.90;;;;;;10073022;29;20200;-90
2024/01/03 17:49:01;;;;;;;23.17;12.73;;;10.40;99.90;;;;;;10090268;29;20604;-90
2024/01/03 17:54:04;;;;;;;19.10;11.47;;;10.30;99.90;;;;;;9717162;29;10000237;-89
2024/01/03 17:59:10;;;;;;;17.07;9.17;;;10.20;99.90;;;;;;10061906;29;20229;-92
2024/01/03 18:04:13;;;;;;;15.20;7.73;;;10.20;99.90;;;;;;10055926;29;20600;-93
2024/01/03 18:09:15;;;;;;;14.77;9.97;;;10.40;99.90;;;;;;10074099;29;20212;-91
2024/01/03 18:14:18;;;;;;;14.37;9.37;;;10.50;99.90;;;;;;10095302;29;20237;-91
2024/01/03 18:19:20;;;;;;;12.67;6.07;;;11.00;99.90;;;;;;10109880;29;20596;-88
2024/01/03 18:24:22;;;;;;;6.67;4.03;;;10.90;99.90;;;;;;10075048;29;20209;-89
2024/01/03 18:29:28;;;;;;;5.93;3.30;;;12.30;99.90;;;;;;10091926;29;20213;-87
2024/01/03 18:34:30;;;;;;;7.57;3.47;;;12.90;99.90;;;;;;10063786;29;20218;-88
2024/01/03 18:39:32;;;;;;;7.17;3.47;;;13.60;99.90;;;;;;10053760;29;20261;-88
2024/01/03 18:44:34;;;;;;;6.73;3.40;;;13.80;99.90;;;;;;10056698;29;20217;-88
2024/01/03 18:49:36;;;;;;;5.60;3.50;;;14.10;99.90;;;;;;10072540;29;20244;-87
2024/01/03 18:54:38;;;;;;;4.30;3.10;;;14.50;99.90;;;;;;10064895;29;20220;-87
2024/01/03 18:59:41;;;;;;;5.37;3.60;;;14.90;99.90;;;;;;10066230;29;20229;-87
2024/01/03 19:04:43;;;;;;;6.67;3.63;;;14.60;99.90;;;;;;10068517;29;20208;-88
2024/01/03 19:09:45;;;;;;;4.63;2.97;;;14.60;99.90;;;;;;10055330;29;20219;-91
2024/01/03 19:14:47;;;;;;;7.43;4.30;;;15.00;99.90;;;;;;10089457;29;20253;-88
2024/01/03 19:19:50;;;;;;;357.07;174.50;;;14.70;99.90;;;;;;10089414;29;20232;-88
2024/01/03 19:24:53;;;;;;;181.07;86.50;;;14.50;99.90;;;;;;10070526;29;20218;-88
2024/01/03 19:29:55;;;;;;;157.83;75.93;;;14.90;99.90;;;;;;10090627;29;20214;-86
2024/01/03 19:34:58;;;;;;;104.33;38.20;;;14.70;99.90;;;;;;10073015;29;20640;-87
2024/01/03 19:40:01;;;;;;;112.37;54.87;;;14.80;99.90;;;;;;10067011;29;20303;-85
2024/01/03 19:45:05;;;;;;;115.87;58.80;;;15.00;99.90;;;;;;10072799;29;20734;-84
2024/01/03 19:50:10;;;;;;;100.40;50.47;;;15.30;99.90;;;;;;10078648;29;20201;-86
2024/01/03 19:55:14;;;;;;;92.60;45.70;;;15.00;99.90;;;;;;10086427;29;21836;-88
2024/01/03 20:00:16;;;;;;;100.53;51.60;;;14.90;99.90;;;;;;10077762;29;20702;-85
2024/01/03 20:05:20;;;;;;;74.50;40.53;;;14.60;99.90;;;;;;10089690;29;20204;-85
2024/01/03 20:10:23;;;;;;;104.77;50.80;;;14.60;99.90;;;;;;10071866;29;20229;-86
2024/01/03 20:15:25;;;;;;;67.13;38.00;;;14.80;99.90;;;;;;10065070;29;20251;-89
2024/01/03 20:20:27;;;;;;;57.00;28.13;;;14.50;99.90;;;;;;10062472;29;20243;-89
2024/01/03 20:25:31;;;;;;;97.20;51.97;;;14.60;99.90;;;;;;10078623;29;20201;-87
2024/01/03 20:30:33;;;;;;;95.13;48.90;;;14.60;99.90;;;;;;10069759;29;20211;-90
2024/01/03 20:35:38;;;;;;;83.13;45.27;;;14.50;99.90;;;;;;10086500;29;20948;-88
2024/01/03 20:40:40;;;;;;;91.63;48.27;;;13.90;99.90;;;;;;10073723;29;20296;-88
2024/01/03 20:45:42;;;;;;;53.07;26.87;;;13.90;99.90;;;;;;10092335;29;20221;-89
2024/01/03 20:50:44;;;;;;;69.77;38.90;;;13.60;99.90;;;;;;10094443;29;20683;-89
2024/01/03 20:55:46;;;;;;;27.17;14.53;;;12.80;99.90;;;;;;10077696;29;20296;-89
2024/01/03 21:00:48;;;;;;;33.40;17.10;;;13.10;99.90;;;;;;10057194;29;20282;-90
2024/01/03 21:05:51;;;;;;;50.03;28.00;;;12.20;99.90;;;;;;10076599;29;20201;-88
2024/01/03 21:10:54;;;;;;;29.00;17.50;;;11.90;99.90;;;;;;10071007;29;20587;-87
2024/01/03 21:15:57;;;;;;;29.27;16.67;;;11.60;99.90;;;;;;10067992;29;20625;-88
2024/01/03 21:21:02;;;;;;;62.80;34.30;;;11.60;99.90;;;;;;10076860;29;20905;-89
2024/01/03 21:26:11;;;;;;;56.03;30.50;;;11.40;99.90;;;;;;10094310;29;20753;-89
2024/01/03 21:31:14;;;;;;;29.10;12.77;;;11.20;99.90;;;;;;10069339;29;20217;-87
2024/01/03 21:36:21;;;;;;;21.60;10.30;;;10.80;99.90;;;;;;10077774;29;20240;-85
2024/01/03 21:41:23;;;;;;;18.97;9.53;;;10.50;99.90;;;;;;10084897;29;20204;-85
2024/01/03 21:46:28;;;;;;;15.30;9.20;;;10.30;99.90;;;;;;10091297;29;20209;-85
2024/01/03 21:51:30;;;;;;;15.80;10.17;;;10.30;99.90;;;;;;10084398;29;20256;-87
2024/01/03 21:56:39;;;;;;;24.50;13.13;;;10.00;99.90;;;;;;10088253;29;20227;-87
2024/01/03 22:01:45;;;;;;;19.93;11.67;;;10.00;99.90;;;;;;10073212;29;20202;-84
2024/01/03 22:06:47;;;;;;;47.53;24.37;;;10.00;99.90;;;;;;10079243;29;20198;-87
2024/01/03 22:11:55;;;;;;;31.30;16.97;;;9.90;99.90;;;;;;10065952;29;20290;-87
2024/01/03 22:16:58;;;;;;;25.87;14.03;;;10.10;99.90;;;;;;10084638;29;20725;-85
2024/01/03 22:22:00;;;;;;;25.10;13.40;;;10.40;99.90;;;;;;10071161;29;20308;-86
2024/01/03 22:27:02;;;;;;;54.47;31.47;;;10.60;99.90;;;;;;10062034;29;20684;-89
2024/01/03 22:32:05;;;;;;;23.33;12.13;;;10.60;99.90;;;;;;10093631;29;21007;-89
2024/01/03 22:37:07;;;;;;;20.27;11.37;;;10.20;99.90;;;;;;10071869;29;20237;-89
2024/01/03 22:42:10;;;;;;;144.00;74.47;;;9.10;99.90;;;;;;10054218;29;20947;-89
2024/01/03 22:47:12;;;;;;;147.40;72.23;;;9.90;99.90;;;;;;10075472;29;20213;-87
2024/01/03 22:52:14;;;;;;;88.77;48.27;;;11.60;99.90;;;;;;10091525;29;20618;-88
2024/01/03 22:57:16;;;;;;;109.63;57.17;;;12.00;99.90;;;;;;10083238;29;20700;-90
2024/01/03 23:02:18;;;;;;;22.40;13.73;;;11.70;99.90;;;;;;10052531;29;20692;-90
2024/01/03 23:07:20;;;;;;;21.77;12.23;;;11.20;99.90;;;;;;10076374;29;20205;-87
2024/01/03 23:12:22;;;;;;;13.17;8.33;;;10.40;99.90;;;;;;10100448;29;20292;-86
2024/01/03 23:17:24;;;;;;;27.90;16.50;;;9.90;99.90;;;;;;10095916;29;20691;-87
2024/01/03 23:22:26;;;;;;;22.43;13.13;;;9.70;99.90;;;;;;10087999;29;20201;-87
2024/01/03 23:27:28;;;;;;;20.77;12.27;;;9.50;99.90;;;;;;10090572;29;20205;-87
2024/01/03 23:32:30;;;;;;;29.23;17.67;;;9.50;99.90;;;;;;10086442;29;20225;-87
2024/01/03 23:37:32;;;;;;;32.23;18.93;;;9.40;99.90;;;;;;10087495;29;20284;-87
2024/01/03 23:42:36;;;;;;;45.27;23.37;;;9.40;99.90;;;;;;10090785;29;20656;-87
2024/01/03 23:47:38;;;;;;;46.33;25.13;;;9.70;99.90;;;;;;10087617;29;20216;-89
2024/01/03 23:52:40;;;;;;;35.60;21.87;;;9.50;99.90;;;;;;10086934;29;20260;-88
2024/01/03 23:57:42;;;;;;;42.50;24.87;;;9.70;99.90;;;;;;10089067;29;20344;-89
